Time;durP1;ratioP1;P1;durP2;ratioP2;P2;SDS_P1;SDS_P2;PMS_P1;PMS_P2;Temp;Humidity;BMP_temperature;BMP_pressure;BME280_temperature;BME280_humidity;BME280_pressure;Samples;Min_cycle;Max_cycle;Signal;HPM_P1;HPM_P2
2022/09/17 00:02:16;;;;;;;2.57;1.40;;;10.50;99.90;;;;;;5033602;28;20212;-73
2022/09/17 00:04:41;;;;;;;4.13;1.27;;;10.60;99.90;;;;;;5034480;28;20187;-73
2022/09/17 00:07:07;;;;;;;3.33;1.60;;;10.60;99.90;;;;;;5034680;28;20269;-73
2022/09/17 00:09:33;;;;;;;1.53;1.07;;;10.60;99.90;;;;;;5034423;28;20172;-74
2022/09/17 00:11:58;;;;;;;2.17;1.00;;;10.70;99.90;;;;;;5034416;28;20194;-74
2022/09/17 00:14:24;;;;;;;4.43;1.27;;;10.70;99.90;;;;;;5034337;28;20566;-74
2022/09/17 00:16:50;;;;;;;3.87;1.07;;;10.80;99.90;;;;;;5034816;28;20782;-74
2022/09/17 00:19:21;;;;;;;3.60;1.33;;;10.80;99.90;;;;;;5034406;28;20174;-74
2022/09/17 00:21:47;;;;;;;8.20;1.57;;;10.80;99.90;;;;;;5034445;28;20164;-74
2022/09/17 00:24:14;;;;;;;3.73;1.13;;;10.80;99.90;;;;;;5034230;28;20429;-73
2022/09/17 00:26:39;;;;;;;4.70;1.97;;;10.80;99.90;;;;;;5034165;28;20192;-73
2022/09/17 00:29:05;;;;;;;9.20;1.70;;;10.90;99.90;;;;;;5034328;28;20399;-74
2022/09/17 00:31:31;;;;;;;4.23;1.33;;;10.90;99.90;;;;;;5034219;28;20257;-74
2022/09/17 00:33:58;;;;;;;5.77;1.83;;;10.90;99.90;;;;;;5034264;28;20164;-73
2022/09/17 00:36:23;;;;;;;2.30;1.20;;;10.90;99.90;;;;;;5032474;28;20433;-73
2022/09/17 00:38:50;;;;;;;13.20;1.63;;;11.00;99.90;;;;;;5033108;28;20406;-72
2022/09/17 00:41:16;;;;;;;1.87;1.30;;;11.00;99.90;;;;;;5033918;28;20168;-73
2022/09/17 00:43:44;;;;;;;7.00;1.63;;;10.90;99.90;;;;;;5034010;28;20410;-72
2022/09/17 00:46:30;;;;;;;2.60;1.30;;;10.90;99.90;;;;;;5033584;28;20430;-74
2022/09/17 00:48:58;;;;;;;2.00;1.10;;;10.90;99.90;;;;;;5033898;28;20501;-73
2022/09/17 00:51:34;;;;;;;1.50;1.40;;;10.90;99.90;;;;;;5033874;28;20446;-74
2022/09/17 00:54:02;;;;;;;4.27;1.53;;;10.80;99.90;;;;;;5032670;28;20766;-74
2022/09/17 00:56:32;;;;;;;1.20;1.00;;;10.90;99.90;;;;;;5033555;28;20506;-74
2022/09/17 00:59:00;;;;;;;2.77;1.13;;;10.80;99.90;;;;;;5033859;28;20763;-74
2022/09/17 01:01:26;;;;;;;4.20;1.47;;;10.80;99.90;;;;;;5033770;28;20410;-73
2022/09/17 01:03:51;;;;;;;4.47;1.13;;;10.70;99.90;;;;;;5032373;28;20914;-72
2022/09/17 01:06:33;;;;;;;3.43;1.40;;;10.70;99.90;;;;;;5033224;28;20279;-72
2022/09/17 01:09:25;;;;;;;2.10;1.37;;;10.70;99.90;;;;;;5033548;28;20635;-72
2022/09/17 01:12:16;;;;;;;3.80;1.30;;;10.70;99.90;;;;;;5033570;28;20406;-72
2022/09/17 01:15:00;;;;;;;6.40;1.33;;;10.60;99.90;;;;;;5033318;28;20430;-72
2022/09/17 01:17:58;;;;;;;1.70;1.30;;;10.60;99.90;;;;;;5033381;28;20410;-74
2022/09/17 01:20:47;;;;;;;4.07;1.30;;;10.60;99.90;;;;;;5032263;28;20472;-73
2022/09/17 01:23:35;;;;;;;5.20;1.10;;;10.50;99.90;;;;;;5033259;28;20395;-74
2022/09/17 01:26:38;;;;;;;2.60;1.60;;;10.50;99.90;;;;;;5032857;28;20464;-74
2022/09/17 01:29:49;;;;;;;4.83;1.80;;;10.50;99.90;;;;;;5033201;28;20753;-75
2022/09/17 01:32:24;;;;;;;4.77;1.13;;;10.50;99.90;;;;;;5033428;28;20446;-75
2022/09/17 01:35:16;;;;;;;3.93;1.40;;;10.50;99.90;;;;;;5032890;28;20444;-75
2022/09/17 01:37:44;;;;;;;2.50;1.63;;;10.50;99.90;;;;;;5032975;28;20405;-74
2022/09/17 01:40:49;;;;;;;1.60;1.00;;;10.50;99.90;;;;;;5033059;28;20402;-73
2022/09/17 01:43:23;;;;;;;6.20;1.43;;;10.40;99.90;;;;;;5031934;28;20406;-74
2022/09/17 01:45:51;;;;;;;2.00;1.20;;;10.40;99.90;;;;;;5031632;28;20557;-75
2022/09/17 01:48:26;;;;;;;3.50;1.23;;;10.40;99.90;;;;;;5032286;28;20406;-74
2022/09/17 01:50:59;;;;;;;2.07;0.90;;;10.40;99.90;;;;;;5032673;28;20453;-74
2022/09/17 01:53:31;;;;;;;4.07;1.23;;;10.40;99.90;;;;;;5032703;28;20430;-73
2022/09/17 01:56:00;;;;;;;3.00;1.40;;;10.40;99.90;;;;;;5032328;28;20418;-74
2022/09/17 01:58:30;;;;;;;3.20;1.13;;;10.50;99.90;;;;;;5032783;28;20556;-75
2022/09/17 02:01:03;;;;;;;5.33;1.93;;;10.60;99.90;;;;;;5032819;28;20387;-75
2022/09/17 02:03:45;;;;;;;4.43;1.30;;;10.60;99.90;;;;;;5032659;28;20426;-75
2022/09/17 02:06:26;;;;;;;4.10;1.50;;;10.60;99.90;;;;;;5032433;28;20433;-76
2022/09/17 02:08:56;;;;;;;5.13;1.20;;;10.60;99.90;;;;;;5032510;28;20403;-74
2022/09/17 02:11:22;;;;;;;1.63;1.10;;;10.60;99.90;;;;;;5032454;28;20438;-75
2022/09/17 02:14:16;;;;;;;2.70;1.50;;;10.60;99.90;;;;;;5032405;28;20441;-74
2022/09/17 02:16:50;;;;;;;4.63;1.67;;;10.60;99.90;;;;;;5032314;28;20398;-74
2022/09/17 02:19:33;;;;;;;8.40;1.20;;;10.60;99.90;;;;;;5032362;28;20856;-73
2022/09/17 02:22:22;;;;;;;1.93;1.13;;;10.50;99.90;;;;;;5032392;28;20890;-74
2022/09/17 02:25:13;;;;;;;1.50;1.13;;;10.50;99.90;;;;;;5031862;28;20453;-73
2022/09/17 02:28:15;;;;;;;2.43;1.40;;;10.50;99.90;;;;;;5031799;28;21031;-73
2022/09/17 02:30:41;;;;;;;3.43;1.13;;;10.50;99.90;;;;;;5027091;28;20468;-73
2022/09/17 02:33:11;;;;;;;2.03;1.23;;;10.60;99.90;;;;;;5032306;28;20988;-74
2022/09/17 02:35:37;;;;;;;6.37;1.87;;;10.60;99.90;;;;;;5031863;28;20267;-73
2022/09/17 02:38:03;;;;;;;3.47;1.90;;;10.60;99.90;;;;;;5032248;28;20403;-73
2022/09/17 02:40:40;;;;;;;7.30;1.43;;;10.70;99.90;;;;;;5032107;28;20413;-74
2022/09/17 02:43:27;;;;;;;3.57;1.70;;;10.70;99.90;;;;;;5032148;28;20926;-74
2022/09/17 02:46:12;;;;;;;3.37;1.80;;;10.80;99.90;;;;;;5031889;28;20426;-75
2022/09/17 02:48:49;;;;;;;2.77;0.97;;;10.80;99.90;;;;;;5031931;28;20406;-73
2022/09/17 02:51:55;;;;;;;4.50;1.40;;;10.80;99.90;;;;;;5031901;28;20450;-74
2022/09/17 02:54:30;;;;;;;2.57;1.20;;;10.80;99.90;;;;;;5030511;28;20452;-74
2022/09/17 02:56:58;;;;;;;8.23;2.20;;;10.80;99.90;;;;;;5031954;28;20416;-73
2022/09/17 02:59:57;;;;;;;5.40;1.33;;;10.80;99.90;;;;;;5031815;28;20456;-73
2022/09/17 03:02:34;;;;;;;2.23;1.50;;;10.80;99.90;;;;;;5035907;28;21029;-74
2022/09/17 03:05:02;;;;;;;2.33;1.83;;;10.80;99.90;;;;;;5035599;28;20457;-73
2022/09/17 03:07:28;;;;;;;4.70;1.70;;;10.90;99.90;;;;;;5035780;28;20409;-74
2022/09/17 03:09:53;;;;;;;5.17;1.57;;;10.90;99.90;;;;;;5035925;28;20950;-73
2022/09/17 03:12:19;;;;;;;2.17;1.20;;;10.90;99.90;;;;;;5035864;28;20712;-73
2022/09/17 03:14:44;;;;;;;7.97;1.60;;;10.90;99.90;;;;;;5035173;28;20219;-73
2022/09/17 03:17:11;;;;;;;2.80;1.53;;;10.90;99.90;;;;;;5035654;28;20625;-73
2022/09/17 03:19:36;;;;;;;1.70;1.07;;;10.90;99.90;;;;;;5035553;28;20159;-73
2022/09/17 03:22:02;;;;;;;4.73;1.17;;;11.00;99.90;;;;;;5035647;28;20927;-74
2022/09/17 03:24:27;;;;;;;2.77;1.60;;;11.00;99.90;;;;;;5033843;28;20195;-73
2022/09/17 03:26:53;;;;;;;3.13;1.30;;;11.00;99.90;;;;;;5035449;28;20186;-74
2022/09/17 03:29:19;;;;;;;2.60;1.30;;;11.00;99.90;;;;;;5035386;28;20163;-74
2022/09/17 03:31:45;;;;;;;2.27;1.50;;;11.00;99.90;;;;;;5035229;28;21015;-74
2022/09/17 03:34:10;;;;;;;4.43;1.57;;;11.00;99.90;;;;;;5035330;28;20575;-73
2022/09/17 03:36:36;;;;;;;4.33;1.10;;;11.00;99.90;;;;;;5034992;28;20184;-74
2022/09/17 03:39:01;;;;;;;7.50;1.47;;;11.00;99.90;;;;;;5035292;28;20233;-73
2022/09/17 03:41:27;;;;;;;1.60;1.10;;;11.00;99.90;;;;;;5035141;28;20171;-73
2022/09/17 03:43:53;;;;;;;2.63;1.10;;;11.00;99.90;;;;;;5035401;28;20163;-73
2022/09/17 03:46:19;;;;;;;2.67;1.40;;;11.00;99.90;;;;;;5033421;28;20191;-74
2022/09/17 03:48:44;;;;;;;2.43;0.97;;;11.00;99.90;;;;;;5035138;28;20164;-74
2022/09/17 03:51:10;;;;;;;2.43;1.17;;;11.00;99.90;;;;;;5034914;28;20556;-74
2022/09/17 03:53:36;;;;;;;2.90;1.30;;;11.10;99.90;;;;;;5034976;28;20202;-74
2022/09/17 03:56:04;;;;;;;4.30;1.27;;;11.10;99.90;;;;;;5034666;28;20442;-74
2022/09/17 03:58:30;;;;;;;2.70;1.20;;;11.10;99.90;;;;;;5034971;28;20282;-73
2022/09/17 04:00:56;;;;;;;4.73;1.53;;;11.10;99.90;;;;;;5034831;28;20413;-73
2022/09/17 04:03:26;;;;;;;2.70;1.10;;;11.10;99.90;;;;;;5034737;28;20422;-75
2022/09/17 04:05:53;;;;;;;2.60;1.57;;;11.10;99.90;;;;;;5034603;28;20437;-75
2022/09/17 04:08:18;;;;;;;2.40;1.53;;;11.00;99.90;;;;;;5034799;28;20417;-74
2022/09/17 04:10:44;;;;;;;10.17;2.47;;;10.90;99.90;;;;;;5034303;28;20441;-74
2022/09/17 04:13:11;;;;;;;2.20;1.33;;;10.80;99.90;;;;;;5034441;28;20175;-74
2022/09/17 04:15:37;;;;;;;3.40;1.20;;;10.70;99.90;;;;;;5034237;28;20472;-74
2022/09/17 04:18:02;;;;;;;1.90;1.10;;;10.60;99.90;;;;;;5033434;28;20492;-74
2022/09/17 04:20:28;;;;;;;2.90;1.17;;;10.60;99.90;;;;;;5034548;28;20226;-75
2022/09/17 04:22:54;;;;;;;6.00;1.70;;;10.50;99.90;;;;;;5033250;28;20694;-74
2022/09/17 04:25:19;;;;;;;1.50;1.30;;;10.40;99.90;;;;;;5034154;28;20607;-73
2022/09/17 04:27:46;;;;;;;3.37;1.30;;;10.40;99.90;;;;;;5034338;28;20175;-73
2022/09/17 04:30:12;;;;;;;4.47;1.80;;;10.30;99.90;;;;;;5034256;28;20649;-73
2022/09/17 04:32:38;;;;;;;3.57;1.37;;;10.30;99.90;;;;;;5034260;28;20403;-74
2022/09/17 04:35:04;;;;;;;3.63;1.00;;;10.30;99.90;;;;;;5033874;28;20418;-73
2022/09/17 04:37:29;;;;;;;5.13;1.10;;;10.30;99.90;;;;;;5034142;28;20167;-74
2022/09/17 04:39:55;;;;;;;4.47;1.10;;;10.20;99.90;;;;;;5034120;28;20537;-74
2022/09/17 04:42:21;;;;;;;7.10;1.93;;;10.20;99.90;;;;;;5034182;28;20159;-74
2022/09/17 04:44:46;;;;;;;10.90;3.53;;;10.20;99.90;;;;;;5033764;28;20215;-74
2022/09/17 04:47:12;;;;;;;6.50;2.80;;;10.20;99.90;;;;;;5034071;28;20168;-74
2022/09/17 04:49:37;;;;;;;3.47;1.50;;;10.30;99.90;;;;;;5033853;28;20172;-75
2022/09/17 04:52:03;;;;;;;7.40;1.27;;;10.30;99.90;;;;;;5032858;28;20170;-74
2022/09/17 04:54:28;;;;;;;3.10;1.20;;;10.40;99.90;;;;;;5032668;28;20167;-75
2022/09/17 04:56:54;;;;;;;5.57;1.03;;;10.40;99.90;;;;;;5033827;28;20243;-75
2022/09/17 04:59:19;;;;;;;3.63;1.80;;;10.40;99.90;;;;;;5034137;28;20160;-74
2022/09/17 05:01:45;;;;;;;8.70;1.50;;;10.40;99.90;;;;;;5033769;28;20168;-75
2022/09/17 05:04:10;;;;;;;7.50;1.63;;;10.50;99.90;;;;;;5032652;28;20621;-74
2022/09/17 05:06:36;;;;;;;2.53;1.10;;;10.50;99.90;;;;;;5033666;28;20207;-74
2022/09/17 05:09:02;;;;;;;4.57;1.40;;;10.60;99.90;;;;;;5033691;28;20699;-74
2022/09/17 05:11:28;;;;;;;4.93;1.10;;;10.60;99.90;;;;;;5032281;28;20202;-75
2022/09/17 05:13:54;;;;;;;5.10;1.13;;;10.60;99.90;;;;;;5033647;28;20772;-75
2022/09/17 05:16:19;;;;;;;5.20;1.37;;;10.60;99.90;;;;;;5033305;28;20422;-75
2022/09/17 05:18:45;;;;;;;8.43;2.70;;;10.60;99.90;;;;;;5033429;28;21166;-75
2022/09/17 05:21:11;;;;;;;19.00;2.40;;;10.70;99.90;;;;;;5033637;28;20561;-75
2022/09/17 05:23:36;;;;;;;4.20;1.97;;;10.70;99.90;;;;;;5032815;28;20172;-74
2022/09/17 05:26:02;;;;;;;2.83;2.33;;;10.70;99.90;;;;;;5033486;28;20248;-75
2022/09/17 05:28:28;;;;;;;3.80;1.10;;;10.70;99.90;;;;;;5033475;28;20688;-75
2022/09/17 05:30:53;;;;;;;5.80;2.10;;;10.70;99.90;;;;;;5033223;28;20201;-75
2022/09/17 05:33:19;;;;;;;2.50;1.20;;;10.70;99.90;;;;;;5032054;28;20411;-75
2022/09/17 05:35:45;;;;;;;5.63;1.07;;;10.80;99.90;;;;;;5032976;28;20183;-75
2022/09/17 05:38:11;;;;;;;7.23;0.90;;;10.80;99.90;;;;;;5033479;28;20593;-75
2022/09/17 05:40:37;;;;;;;4.33;1.10;;;10.80;99.90;;;;;;5033276;28;20403;-75
2022/09/17 05:43:05;;;;;;;4.30;1.13;;;10.80;99.90;;;;;;5033016;28;20651;-75
2022/09/17 05:45:34;;;;;;;5.10;1.17;;;10.80;99.90;;;;;;5032927;28;20183;-75
2022/09/17 05:48:01;;;;;;;3.83;1.30;;;10.80;99.90;;;;;;5032978;28;20414;-74
2022/09/17 05:50:28;;;;;;;2.23;1.20;;;10.80;99.90;;;;;;5032719;28;20450;-75
2022/09/17 05:52:54;;;;;;;2.30;0.70;;;11.00;99.90;;;;;;5032838;28;20404;-75
2022/09/17 05:55:21;;;;;;;2.40;1.00;;;11.10;99.90;;;;;;5032677;28;20505;-75
2022/09/17 05:57:47;;;;;;;5.03;0.90;;;11.10;99.90;;;;;;5032967;28;20762;-78
2022/09/17 06:00:14;;;;;;;4.47;3.10;;;11.30;99.90;;;;;;5032881;28;20929;-75
2022/09/17 06:02:40;;;;;;;5.03;1.50;;;11.40;99.90;;;;;;5032722;28;20458;-75
2022/09/17 06:05:05;;;;;;;3.50;0.90;;;11.60;99.90;;;;;;5032477;28;20465;-75
2022/09/17 06:07:37;;;;;;;3.30;1.30;;;11.80;99.90;;;;;;5032574;28;20476;-75
2022/09/17 06:10:04;;;;;;;3.20;1.00;;;12.00;99.90;;;;;;5032607;28;20179;-75
2022/09/17 06:12:30;;;;;;;2.47;1.30;;;12.20;99.90;;;;;;5031333;28;20434;-75
2022/09/17 06:14:55;;;;;;;4.20;1.20;;;12.40;99.90;;;;;;5032363;28;20477;-75
2022/09/17 06:17:21;;;;;;;1.93;1.10;;;12.60;99.90;;;;;;5032760;28;20178;-75
2022/09/17 06:19:46;;;;;;;7.13;1.20;;;12.80;99.90;;;;;;5032704;28;20168;-75
2022/09/17 06:22:12;;;;;;;5.70;1.33;;;13.00;99.90;;;;;;5032379;28;20160;-75
2022/09/17 06:24:38;;;;;;;4.10;0.90;;;13.10;99.90;;;;;;5032091;28;20676;-75
2022/09/17 06:27:04;;;;;;;6.73;1.27;;;13.30;99.90;;;;;;5032345;28;20648;-75
2022/09/17 06:29:29;;;;;;;2.93;1.10;;;13.40;99.90;;;;;;5032209;28;20166;-75
2022/09/17 06:31:55;;;;;;;3.23;1.43;;;13.40;99.90;;;;;;5032311;28;20410;-75
2022/09/17 06:34:20;;;;;;;4.57;1.53;;;13.50;99.90;;;;;;5032616;28;20512;-75
2022/09/17 06:36:48;;;;;;;3.53;0.90;;;13.50;99.90;;;;;;5032466;28;20164;-75
2022/09/17 06:39:14;;;;;;;8.03;3.10;;;13.50;99.90;;;;;;5032041;28;20167;-75
2022/09/17 06:41:41;;;;;;;2.50;0.93;;;13.50;99.90;;;;;;5032190;28;21138;-75
2022/09/17 06:44:07;;;;;;;2.30;0.73;;;13.50;99.90;;;;;;5032353;28;20174;-75
2022/09/17 06:46:33;;;;;;;3.40;1.27;;;13.40;99.90;;;;;;5031862;28;20795;-75
2022/09/17 06:48:58;;;;;;;1.57;0.70;;;13.30;99.90;;;;;;5032170;28;20576;-75
2022/09/17 06:51:24;;;;;;;2.93;0.90;;;13.30;99.90;;;;;;5032105;28;20218;-75
2022/09/17 06:53:49;;;;;;;1.93;1.60;;;13.10;99.90;;;;;;5032258;28;20164;-74
2022/09/17 06:56:15;;;;;;;5.70;1.50;;;12.90;99.90;;;;;;5031788;28;20179;-75
2022/09/17 06:58:41;;;;;;;4.67;1.20;;;12.80;99.90;;;;;;5032220;28;20175;-75
2022/09/17 07:01:08;;;;;;;2.37;1.03;;;12.80;99.90;;;;;;5032244;28;20167;-75
2022/09/17 07:03:34;;;;;;;2.90;1.13;;;12.80;99.90;;;;;;5032032;28;20422;-75
2022/09/17 07:06:00;;;;;;;3.03;1.20;;;12.80;99.90;;;;;;5030733;28;20950;-75
2022/09/17 07:08:25;;;;;;;2.43;1.00;;;12.80;99.90;;;;;;5031803;28;20175;-75
2022/09/17 07:10:55;;;;;;;3.30;1.50;;;12.70;99.90;;;;;;5032071;28;20191;-75
2022/09/17 07:13:20;;;;;;;2.20;0.97;;;12.70;99.90;;;;;;5031930;28;20207;-75
2022/09/17 07:15:57;;;;;;;3.03;0.90;;;12.80;99.90;;;;;;5031634;28;20429;-75
2022/09/17 07:18:23;;;;;;;2.30;1.33;;;13.00;99.90;;;;;;5031861;28;20163;-75
2022/09/17 07:20:56;;;;;;;2.20;0.80;;;13.10;99.90;;;;;;5031744;28;20520;-74
2022/09/17 07:23:27;;;;;;;4.30;1.00;;;13.00;99.90;;;;;;5031861;28;20417;-75
2022/09/17 07:25:55;;;;;;;2.00;1.00;;;13.20;99.90;;;;;;5031674;28;20440;-75
2022/09/17 07:28:21;;;;;;;6.03;1.20;;;13.30;99.90;;;;;;5031743;28;20406;-75
2022/09/17 07:30:47;;;;;;;8.73;1.50;;;13.40;99.90;;;;;;5031645;28;20943;-75
2022/09/17 07:33:13;;;;;;;1.50;0.80;;;13.40;99.90;;;;;;5031666;28;20548;-75
2022/09/17 07:35:39;;;;;;;2.27;1.20;;;13.50;99.90;;;;;;5031514;28;20422;-74
2022/09/17 07:38:04;;;;;;;2.40;1.03;;;13.70;99.90;;;;;;5031779;28;20406;-75
2022/09/17 07:40:30;;;;;;;4.70;1.43;;;14.00;99.90;;;;;;5031615;28;20202;-75
2022/09/17 07:42:58;;;;;;;1.87;1.17;;;14.20;99.90;;;;;;5031855;28;20168;-75
2022/09/17 07:45:24;;;;;;;4.73;0.83;;;14.30;99.90;;;;;;5031314;28;20660;-75
2022/09/17 07:47:50;;;;;;;1.93;1.20;;;14.60;99.90;;;;;;5034657;28;20402;-75
2022/09/17 07:50:16;;;;;;;2.37;1.10;;;14.90;99.90;;;;;;5035110;28;20199;-75
2022/09/17 07:52:46;;;;;;;7.43;1.20;;;15.30;99.90;;;;;;5035174;28;20535;-75
2022/09/17 07:55:12;;;;;;;5.90;1.50;;;15.70;99.90;;;;;;5034840;28;20449;-75
2022/09/17 07:57:38;;;;;;;5.27;1.20;;;16.10;99.90;;;;;;5035135;28;20490;-75
2022/09/17 08:00:04;;;;;;;6.83;0.90;;;16.80;99.90;;;;;;5033619;28;20184;-75
2022/09/17 08:02:30;;;;;;;2.60;1.00;;;17.30;99.90;;;;;;5034860;28;20179;-75
2022/09/17 08:04:56;;;;;;;5.30;1.60;;;17.50;99.90;;;;;;5034673;28;20437;-75
2022/09/17 08:07:21;;;;;;;2.43;1.50;;;17.70;99.90;;;;;;5034974;28;20648;-75
2022/09/17 08:09:47;;;;;;;1.50;0.90;;;18.10;99.90;;;;;;5034729;28;20410;-75
2022/09/17 08:12:12;;;;;;;2.70;1.20;;;18.40;99.90;;;;;;5034837;28;20167;-75
2022/09/17 08:14:38;;;;;;;4.00;0.93;;;18.70;99.90;;;;;;5034592;28;20262;-75
2022/09/17 08:17:07;;;;;;;6.50;1.20;;;18.70;99.90;;;;;;5033135;28;20258;-75
2022/09/17 08:19:32;;;;;;;4.53;1.10;;;18.60;99.90;;;;;;5034571;28;20160;-75
2022/09/17 08:21:58;;;;;;;4.83;1.23;;;18.40;99.90;;;;;;5034292;28;20917;-75
2022/09/17 08:24:24;;;;;;;1.40;0.70;;;18.20;99.90;;;;;;5034524;28;20168;-75
2022/09/17 08:26:49;;;;;;;6.00;4.30;;;18.80;99.90;;;;;;5034595;28;20174;-76
2022/09/17 08:29:15;;;;;;;2.23;1.00;;;19.70;99.90;;;;;;5034576;28;20168;-75
2022/09/17 08:31:40;;;;;;;1.37;0.83;;;20.50;99.90;;;;;;5034448;28;20195;-75
2022/09/17 08:34:08;;;;;;;1.37;0.90;;;20.50;99.90;;;;;;5034263;28;20202;-75
2022/09/17 08:36:33;;;;;;;3.80;1.30;;;20.60;99.90;;;;;;5034137;28;20263;-75
2022/09/17 08:38:59;;;;;;;2.90;1.10;;;20.80;99.90;;;;;;5034205;28;20451;-75
2022/09/17 08:41:38;;;;;;;1.40;0.80;;;21.50;99.30;;;;;;5034286;28;20186;-76
2022/09/17 08:44:14;;;;;;;5.83;1.03;;;22.70;97.10;;;;;;5034089;28;20154;-75
2022/09/17 08:47:12;;;;;;;2.83;1.20;;;23.70;91.20;;;;;;5033499;28;20475;-73
2022/09/17 08:49:53;;;;;;;8.00;1.97;;;23.90;81.40;;;;;;5021509;28;20425;-75
2022/09/17 08:52:58;;;;;;;1.50;1.13;;;23.60;79.30;;;;;;5033999;28;20383;-75
2022/09/17 08:55:36;;;;;;;2.80;1.00;;;22.90;80.90;;;;;;5034104;28;20422;-76
2022/09/17 08:58:29;;;;;;;2.03;1.20;;;22.20;82.50;;;;;;5032675;28;20401;-76
2022/09/17 09:01:24;;;;;;;4.60;1.77;;;21.50;83.30;;;;;;5033980;28;20490;-75
2022/09/17 09:04:08;;;;;;;2.70;1.10;;;20.90;91.40;;;;;;5022501;28;20491;-76
2022/09/17 09:06:40;;;;;;;3.87;1.67;;;20.70;94.10;;;;;;5033326;28;20475;-75
2022/09/17 09:09:13;;;;;;;4.07;1.23;;;20.40;94.40;;;;;;5033970;28;20899;-76
2022/09/17 09:11:39;;;;;;;2.40;0.80;;;20.70;97.40;;;;;;5033276;28;20454;-76
2022/09/17 09:14:19;;;;;;;5.33;1.40;;;22.10;91.80;;;;;;5033226;28;20398;-75
2022/09/17 09:16:45;;;;;;;5.70;1.40;;;22.90;86.80;;;;;;5033324;28;20402;-74
2022/09/17 09:19:23;;;;;;;3.90;1.93;;;24.20;80.90;;;;;;5033483;28;20770;-73
2022/09/17 09:22:10;;;;;;;3.30;1.20;;;25.70;72.40;;;;;;5033577;28;20394;-74
2022/09/17 09:24:47;;;;;;;1.73;1.07;;;27.40;68.00;;;;;;5032948;28;20382;-74
2022/09/17 09:27:36;;;;;;;4.50;1.50;;;29.40;58.80;;;;;;5033066;28;20394;-74
2022/09/17 09:30:06;;;;;;;6.33;1.77;;;30.10;51.40;;;;;;5032910;28;20803;-73
2022/09/17 09:32:58;;;;;;;2.83;1.50;;;29.10;50.90;;;;;;5032849;28;20438;-74
2022/09/17 09:35:37;;;;;;;1.60;1.00;;;28.00;50.70;;;;;;5032479;28;20411;-74
2022/09/17 09:38:08;;;;;;;4.30;1.20;;;27.70;52.60;;;;;;5032781;28;20408;-74
2022/09/17 09:40:45;;;;;;;1.80;1.10;;;28.70;51.60;;;;;;5032989;28;20429;-74
2022/09/17 09:43:27;;;;;;;2.43;1.13;;;29.40;49.40;;;;;;5032732;28;20425;-74
2022/09/17 09:46:19;;;;;;;3.97;2.03;;;30.30;49.80;;;;;;5031292;28;20461;-74
2022/09/17 09:49:18;;;;;;;2.60;1.20;;;30.40;47.20;;;;;;5032604;28;20468;-74
2022/09/17 09:52:28;;;;;;;3.93;1.27;;;29.60;45.90;;;;;;5032538;28;20477;-74
2022/09/17 09:55:22;;;;;;;2.37;1.30;;;28.40;48.10;;;;;;5031638;28;20422;-76
2022/09/17 09:57:57;;;;;;;5.20;1.53;;;28.80;47.50;;;;;;5031280;28;20406;-74
2022/09/17 10:00:35;;;;;;;1.77;0.90;;;27.90;46.50;;;;;;5031149;28;20405;-74
2022/09/17 10:03:21;;;;;;;4.70;1.43;;;27.80;48.00;;;;;;5032339;28;20770;-74
2022/09/17 10:05:55;;;;;;;7.80;1.23;;;28.60;48.50;;;;;;5030105;28;20434;-74
2022/09/17 10:08:20;;;;;;;4.50;3.33;;;29.70;47.30;;;;;;5032565;28;20399;-74
2022/09/17 10:10:56;;;;;;;3.83;1.20;;;29.70;47.70;;;;;;5031819;28;20966;-74
2022/09/17 10:13:22;;;;;;;1.83;0.90;;;28.90;46.00;;;;;;5030849;28;20666;-76
2022/09/17 10:15:47;;;;;;;3.53;1.13;;;27.30;46.10;;;;;;5031699;28;20422;-74
2022/09/17 10:18:21;;;;;;;2.50;1.20;;;27.30;48.20;;;;;;5032035;28;20532;-74
2022/09/17 10:20:51;;;;;;;2.17;0.97;;;28.40;49.00;;;;;;5032284;28;20174;-74
2022/09/17 10:23:17;;;;;;;2.60;1.03;;;28.80;45.60;;;;;;5031856;28;20414;-74
2022/09/17 10:25:43;;;;;;;1.70;1.10;;;28.00;45.00;;;;;;5031090;28;20532;-74
2022/09/17 10:28:36;;;;;;;3.13;1.00;;;27.50;46.60;;;;;;5031831;28;20919;-73
2022/09/17 10:31:09;;;;;;;2.57;1.20;;;27.20;47.10;;;;;;5032144;28;21003;-73
2022/09/17 10:33:55;;;;;;;1.77;1.07;;;26.20;47.90;;;;;;5031962;28;20379;-75
2022/09/17 10:36:42;;;;;;;3.43;1.27;;;25.10;50.10;;;;;;5031475;28;20434;-75
2022/09/17 10:39:22;;;;;;;6.00;1.00;;;26.10;50.40;;;;;;5032217;28;20394;-76
2022/09/17 10:41:55;;;;;;;2.87;1.30;;;27.90;49.20;;;;;;5031944;28;20406;-74
2022/09/17 10:44:23;;;;;;;4.33;1.00;;;29.50;46.00;;;;;;5031693;28;20437;-74
2022/09/17 10:46:49;;;;;;;2.50;0.93;;;29.20;44.70;;;;;;5030232;28;20444;-73
2022/09/17 10:49:41;;;;;;;3.23;1.40;;;28.00;46.20;;;;;;5032073;28;20841;-76
2022/09/17 10:52:21;;;;;;;2.20;1.33;;;27.70;49.50;;;;;;5031874;28;20393;-76
2022/09/17 10:55:04;;;;;;;4.23;1.47;;;29.10;48.50;;;;;;5031693;28;20436;-76
2022/09/17 10:57:50;;;;;;;2.13;1.47;;;30.40;47.00;;;;;;5030124;28;21141;-73
2022/09/17 11:00:22;;;;;;;1.70;1.47;;;31.50;44.80;;;;;;5031578;28;20411;-75
2022/09/17 11:03:08;;;;;;;3.73;0.90;;;33.00;42.40;;;;;;5031622;28;20430;-75
2022/09/17 11:06:17;;;;;;;2.57;1.00;;;34.10;40.50;;;;;;5031497;28;20986;-75
2022/09/17 11:09:21;;;;;;;2.13;1.00;;;34.90;38.60;;;;;;5030371;28;20409;-75
2022/09/17 11:11:46;;;;;;;1.67;1.00;;;35.50;37.50;;;;;;5019296;28;20835;-73
2022/09/17 11:14:43;;;;;;;3.50;1.97;;;36.20;36.70;;;;;;5030052;28;20401;-73
2022/09/17 11:17:14;;;;;;;2.10;1.60;;;36.30;35.40;;;;;;5031482;28;20271;-74
2022/09/17 11:19:58;;;;;;;4.90;2.17;;;36.30;34.40;;;;;;5031630;28;20402;-73
2022/09/17 11:22:55;;;;;;;4.70;1.30;;;35.70;34.60;;;;;;5033876;28;20380;-75
2022/09/17 11:25:43;;;;;;;3.23;1.17;;;35.60;35.00;;;;;;5034824;28;20448;-73
2022/09/17 11:28:21;;;;;;;2.17;1.00;;;33.40;35.90;;;;;;5035305;28;20399;-73
2022/09/17 11:31:22;;;;;;;1.73;1.00;;;31.50;38.30;;;;;;5035327;28;20438;-73
2022/09/17 11:34:09;;;;;;;1.93;0.90;;;29.20;41.20;;;;;;5016325;28;20409;-74
2022/09/17 11:37:01;;;;;;;2.30;0.80;;;26.50;46.70;;;;;;5034637;28;20438;-74
2022/09/17 11:39:47;;;;;;;1.83;1.03;;;24.10;53.40;;;;;;5034869;28;20417;-73
2022/09/17 11:42:26;;;;;;;2.13;0.80;;;21.80;58.50;;;;;;5033746;28;20468;-74
2022/09/17 11:45:21;;;;;;;1.93;0.90;;;20.50;68.40;;;;;;5033019;28;20595;-73
2022/09/17 11:48:02;;;;;;;2.13;0.70;;;19.20;91.30;;;;;;5031783;28;20438;-72
2022/09/17 11:50:35;;;;;;;2.77;1.63;;;18.80;99.90;;;;;;5034783;28;20446;-72
2022/09/17 11:53:39;;;;;;;1.90;0.70;;;19.70;99.90;;;;;;5034982;28;20399;-73
2022/09/17 11:56:25;;;;;;;5.83;0.90;;;21.60;99.90;;;;;;5033359;28;20446;-72
2022/09/17 11:59:13;;;;;;;1.70;1.33;;;24.70;99.90;;;;;;5034620;28;20411;-73
2022/09/17 12:01:57;;;;;;;1.10;0.70;;;27.70;86.40;;;;;;5041075;28;20481;-74
2022/09/17 12:04:48;;;;;;;3.20;1.23;;;30.20;63.70;;;;;;5033310;28;20440;-74
2022/09/17 12:07:48;;;;;;;2.43;1.10;;;31.90;55.60;;;;;;5033515;28;20432;-74
2022/09/17 12:10:19;;;;;;;2.30;1.83;;;32.50;50.90;;;;;;5014963;28;20459;-74
2022/09/17 12:12:57;;;;;;;2.87;1.10;;;33.30;49.10;;;;;;5014748;28;20790;-74
2022/09/17 12:15:26;;;;;;;3.80;1.27;;;33.40;47.30;;;;;;5017987;28;20446;-74
2022/09/17 12:18:02;;;;;;;3.00;1.43;;;33.50;46.30;;;;;;5034015;28;20441;-75
2022/09/17 12:20:32;;;;;;;1.40;0.90;;;32.80;46.80;;;;;;5034649;28;20444;-74
2022/09/17 12:23:02;;;;;;;2.00;1.30;;;31.80;47.50;;;;;;5034397;28;20410;-74
2022/09/17 12:25:39;;;;;;;4.00;2.30;;;30.00;47.30;;;;;;5033365;28;21092;-74
2022/09/17 12:28:23;;;;;;;1.50;0.93;;;27.90;49.70;;;;;;5027210;28;20817;-74
2022/09/17 12:31:00;;;;;;;1.43;1.13;;;26.20;52.20;;;;;;5033792;28;20491;-73
2022/09/17 12:33:33;;;;;;;3.50;1.00;;;25.00;55.10;;;;;;5033694;28;20451;-73
2022/09/17 12:36:32;;;;;;;2.80;0.80;;;25.50;58.40;;;;;;5030574;28;21042;-73
2022/09/17 12:39:08;;;;;;;1.83;0.90;;;26.40;55.80;;;;;;5032313;28;20541;-74
2022/09/17 12:41:52;;;;;;;1.73;1.13;;;26.10;55.70;;;;;;5033854;28;20421;-74
2022/09/17 12:44:42;;;;;;;2.33;0.93;;;26.40;55.70;;;;;;5033542;28;20412;-75
2022/09/17 12:47:33;;;;;;;1.10;0.73;;;27.50;57.80;;;;;;5034365;28;20434;-74
2022/09/17 12:50:19;;;;;;;1.87;1.10;;;28.60;51.80;;;;;;5025563;28;20406;-74
2022/09/17 12:53:27;;;;;;;3.10;1.20;;;29.40;50.50;;;;;;5033736;28;20934;-75
2022/09/17 12:56:01;;;;;;;1.90;1.20;;;29.10;51.20;;;;;;5032359;28;20856;-75
2022/09/17 12:58:34;;;;;;;1.73;0.87;;;29.50;51.10;;;;;;5033600;28;20403;-73
2022/09/17 13:01:11;;;;;;;1.40;0.97;;;30.50;49.00;;;;;;5033485;28;20398;-73
2022/09/17 13:03:49;;;;;;;2.57;1.60;;;31.80;48.70;;;;;;5033473;28;20433;-74
2022/09/17 13:06:34;;;;;;;1.40;0.90;;;33.00;45.40;;;;;;5032845;28;20438;-75
2022/09/17 13:09:09;;;;;;;3.03;1.00;;;33.80;42.50;;;;;;5033452;28;20888;-75
2022/09/17 13:11:59;;;;;;;2.07;1.07;;;34.50;42.20;;;;;;5033558;28;20528;-75
2022/09/17 13:14:39;;;;;;;1.30;0.83;;;34.60;41.30;;;;;;5033383;28;20394;-75
2022/09/17 13:17:19;;;;;;;2.03;1.23;;;34.60;40.80;;;;;;5032274;28;20432;-75
2022/09/17 13:20:11;;;;;;;1.40;0.97;;;35.00;40.20;;;;;;5033388;28;20414;-75